createdAt,value
2022-10-24T00:02:21.416Z,10.43
2022-10-24T00:04:47.877Z,8.50
2022-10-24T00:07:14.309Z,9.43
2022-10-24T00:09:40.672Z,6.38
2022-10-24T00:12:07.379Z,8.88
2022-10-24T00:14:35.063Z,9.50
2022-10-24T00:17:01.482Z,6.32
2022-10-24T00:19:27.930Z,7.05
2022-10-24T00:21:54.277Z,8.48
2022-10-24T00:24:20.711Z,4.65
2022-10-24T00:26:47.055Z,6.95
2022-10-24T00:29:13.405Z,8.30
2022-10-24T00:31:40.252Z,5.97
2022-10-24T00:34:06.582Z,8.85
2022-10-24T00:36:32.942Z,8.35
2022-10-24T00:38:59.537Z,8.70
2022-10-24T00:41:36.510Z,10.93
2022-10-24T00:44:16.306Z,10.55
2022-10-24T00:46:44.125Z,5.95
2022-10-24T00:51:36.674Z,6.72
2022-10-24T00:54:05.053Z,8.25
2022-10-24T00:56:34.823Z,10.43
2022-10-24T00:59:02.563Z,10.23
2022-10-24T01:01:29.033Z,7.25
2022-10-24T01:03:55.482Z,6.40
2022-10-24T01:06:24.679Z,8.23
2022-10-24T01:09:09.648Z,9.02
2022-10-24T01:11:42.044Z,8.75
2022-10-24T01:14:15.631Z,9.02
2022-10-24T01:16:47.142Z,5.38
2022-10-24T01:19:31.910Z,7.10
2022-10-24T01:22:02.720Z,7.75
2022-10-24T01:24:41.543Z,6.20
2022-10-24T01:27:22.873Z,8.05
2022-10-24T01:29:49.247Z,6.43
2022-10-24T01:32:22.091Z,7.10
2022-10-24T01:35:17.860Z,7.60
2022-10-24T01:37:47.263Z,7.57
2022-10-24T01:40:21.665Z,5.82
2022-10-24T01:42:50.140Z,9.15
2022-10-24T01:45:20.324Z,6.57
2022-10-24T01:47:50.099Z,6.20
2022-10-24T01:50:18.123Z,8.30
2022-10-24T01:52:45.750Z,7.80
2022-10-24T01:57:39.741Z,8.25
2022-10-24T02:00:07.677Z,5.68
2022-10-24T02:02:39.735Z,5.63
2022-10-24T02:05:11.855Z,5.47
2022-10-24T02:07:40.064Z,3.15
2022-10-24T02:10:09.164Z,1.92
2022-10-24T02:12:37.375Z,1.67
2022-10-24T02:15:06.941Z,2.30
2022-10-24T02:17:33.473Z,1.60
2022-10-24T02:20:00.332Z,1.95
2022-10-24T02:22:41.931Z,1.42
2022-10-24T02:25:12.953Z,1.65
2022-10-24T02:27:42.662Z,1.27
2022-10-24T02:30:10.855Z,2.10
2022-10-24T02:32:41.471Z,2.05
2022-10-24T02:35:09.107Z,2.70
2022-10-24T02:37:37.585Z,2.17
2022-10-24T02:40:05.871Z,0.60
2022-10-24T02:42:33.081Z,2.45
2022-10-24T02:44:59.901Z,2.38
2022-10-24T02:47:26.979Z,2.20
2022-10-24T02:49:53.664Z,0.65
2022-10-24T02:52:20.714Z,0.80
2022-10-24T02:54:47.090Z,2.15
2022-10-24T02:57:15.131Z,1.98
2022-10-24T02:59:41.512Z,1.60
2022-10-24T03:02:07.923Z,0.50
2022-10-24T03:04:34.362Z,1.35
2022-10-24T03:07:00.742Z,1.13
2022-10-24T03:09:27.068Z,1.73
2022-10-24T03:11:53.381Z,1.05
2022-10-24T03:14:19.730Z,0.70
2022-10-24T03:16:46.061Z,1.70
2022-10-24T03:19:12.403Z,2.58
2022-10-24T03:21:40.133Z,0.88
2022-10-24T03:26:37.951Z,1.50
2022-10-24T03:29:04.310Z,4.35
2022-10-24T03:31:31.591Z,1.60
2022-10-24T03:33:58.643Z,2.42
2022-10-24T03:36:25.006Z,1.10
2022-10-24T03:38:51.510Z,1.13
2022-10-24T03:41:17.823Z,0.73
2022-10-24T03:43:44.195Z,2.42
2022-10-24T03:46:10.530Z,1.80
2022-10-24T03:48:36.890Z,1.75
2022-10-24T03:51:03.290Z,1.35
2022-10-24T03:53:29.670Z,4.32
2022-10-24T03:55:57.379Z,1.77
2022-10-24T03:58:24.371Z,3.05
2022-10-24T04:00:50.824Z,1.35
2022-10-24T04:03:17.245Z,2.55
2022-10-24T04:05:43.631Z,1.55
2022-10-24T04:08:10.105Z,2.03
2022-10-24T04:10:36.583Z,2.08
2022-10-24T04:13:02.988Z,4.35
2022-10-24T04:15:29.418Z,1.08
2022-10-24T04:21:21.797Z,2.08
2022-10-24T04:23:48.643Z,1.48
2022-10-24T04:26:15.837Z,2.67
2022-10-24T04:28:42.308Z,2.90
2022-10-24T04:31:08.614Z,1.30
2022-10-24T04:33:36.355Z,1.42
2022-10-24T04:36:32.525Z,3.13
2022-10-24T04:41:30.083Z,2.90
2022-10-24T04:43:56.740Z,2.13
2022-10-24T04:46:23.213Z,3.03
2022-10-24T04:48:49.609Z,1.05
2022-10-24T04:51:18.659Z,1.92
2022-10-24T04:53:48.132Z,2.28
2022-10-24T04:56:14.459Z,1.58
2022-10-24T04:58:40.814Z,1.90
2022-10-24T05:01:07.261Z,2.50
2022-10-24T05:03:33.711Z,1.77
2022-10-24T05:06:00.086Z,3.80
2022-10-24T05:08:26.552Z,3.28
2022-10-24T05:10:52.906Z,2.67
2022-10-24T05:13:19.438Z,3.03
2022-10-24T05:15:45.760Z,2.55
2022-10-24T05:18:12.327Z,3.97
2022-10-24T05:20:38.833Z,3.95
2022-10-24T05:23:05.204Z,4.63
2022-10-24T05:25:31.590Z,1.88
2022-10-24T05:27:57.975Z,2.05
2022-10-24T05:30:24.311Z,2.60
2022-10-24T05:32:50.622Z,3.55
2022-10-24T05:35:17.067Z,3.22
2022-10-24T05:37:44.108Z,3.80
2022-10-24T05:40:11.198Z,4.80
2022-10-24T05:42:38.745Z,3.78
2022-10-24T05:45:06.057Z,3.50
2022-10-24T05:47:32.412Z,2.35
2022-10-24T05:49:58.747Z,4.40
2022-10-24T05:52:25.133Z,2.67
2022-10-24T05:55:02.548Z,2.70
2022-10-24T05:57:33.242Z,4.43
2022-10-24T05:59:59.694Z,5.75
2022-10-24T06:02:26.743Z,3.75
2022-10-24T06:04:54.998Z,4.97
2022-10-24T06:07:21.410Z,4.30
2022-10-24T06:09:47.791Z,6.05
2022-10-24T06:12:14.216Z,3.97
2022-10-24T06:14:40.833Z,7.20
2022-10-24T06:17:09.187Z,4.03
2022-10-24T06:19:36.747Z,5.15
2022-10-24T06:22:03.808Z,4.97
2022-10-24T06:24:30.210Z,5.60
2022-10-24T06:26:56.670Z,2.90
2022-10-24T06:29:23.000Z,6.75
2022-10-24T06:31:49.379Z,5.78
2022-10-24T06:34:15.723Z,5.72
2022-10-24T06:36:42.148Z,4.82
2022-10-24T06:39:08.490Z,5.85
2022-10-24T06:41:34.863Z,5.05
2022-10-24T06:44:02.740Z,5.78
2022-10-24T06:48:55.617Z,6.25
2022-10-24T06:51:22.760Z,5.78
2022-10-24T06:53:49.198Z,4.93
2022-10-24T06:56:17.593Z,5.45
2022-10-24T06:58:44.446Z,9.48
2022-10-24T07:01:12.541Z,5.93
2022-10-24T07:03:39.081Z,8.02
2022-10-24T07:06:09.401Z,4.18
2022-10-24T07:08:36.043Z,6.97
2022-10-24T07:11:02.498Z,7.10
2022-10-24T07:13:30.318Z,4.45
2022-10-24T07:18:22.894Z,6.13
2022-10-24T07:20:49.221Z,4.90
2022-10-24T07:23:15.631Z,6.63
2022-10-24T07:25:42.124Z,6.32
2022-10-24T07:28:11.116Z,8.63
2022-10-24T07:30:38.339Z,4.53
2022-10-24T07:33:05.485Z,4.47
2022-10-24T07:35:31.879Z,7.75
2022-10-24T07:37:58.500Z,4.70
2022-10-24T07:40:24.859Z,4.30
2022-10-24T07:42:51.203Z,3.95
2022-10-24T07:45:17.572Z,5.00
2022-10-24T07:47:44.120Z,7.07
2022-10-24T07:50:10.696Z,6.45
2022-10-24T07:52:37.056Z,10.50
2022-10-24T07:55:03.671Z,9.30
2022-10-24T07:57:30.009Z,5.50
2022-10-24T07:59:56.370Z,6.35
2022-10-24T08:02:22.694Z,5.07
2022-10-24T08:04:49.015Z,7.97
2022-10-24T08:07:15.363Z,3.20
2022-10-24T08:09:44.042Z,6.25
2022-10-24T08:12:10.580Z,6.22
2022-10-24T08:14:37.619Z,6.30
2022-10-24T08:17:04.747Z,5.13
2022-10-24T08:19:31.707Z,6.00
2022-10-24T08:21:58.416Z,5.70
2022-10-24T08:24:24.774Z,3.38
2022-10-24T08:26:51.185Z,2.35
2022-10-24T08:29:22.416Z,2.42
2022-10-24T08:31:49.687Z,4.43
2022-10-24T08:34:17.029Z,3.85
2022-10-24T08:36:43.855Z,4.57
2022-10-24T08:39:10.160Z,2.92
2022-10-24T08:41:50.220Z,3.53
2022-10-24T08:44:20.917Z,2.25
2022-10-24T08:46:50.362Z,1.55
2022-10-24T08:49:23.866Z,4.15
2022-10-24T08:51:52.999Z,3.20
2022-10-24T08:54:23.228Z,2.55
2022-10-24T08:56:50.106Z,3.05
2022-10-24T08:59:16.578Z,4.90
2022-10-24T09:01:46.086Z,5.47
2022-10-24T09:04:14.322Z,3.47
2022-10-24T09:06:40.946Z,4.10
2022-10-24T09:09:23.189Z,5.10
2022-10-24T09:11:54.497Z,4.22
2022-10-24T09:14:26.495Z,2.47
2022-10-24T09:17:13.345Z,5.85
2022-10-24T09:22:07.844Z,3.78
2022-10-24T09:24:46.037Z,5.75
2022-10-24T09:27:16.025Z,4.50
2022-10-24T09:29:42.512Z,5.03
2022-10-24T09:32:16.264Z,3.70
2022-10-24T09:34:42.793Z,3.63
2022-10-24T09:37:32.372Z,5.47
2022-10-24T09:40:06.410Z,4.30
2022-10-24T09:42:32.977Z,5.00
2022-10-24T09:44:59.463Z,5.53
2022-10-24T09:47:28.093Z,4.10
2022-10-24T09:49:54.754Z,5.70
2022-10-24T09:52:22.585Z,3.97
2022-10-24T09:55:18.418Z,5.22
2022-10-24T09:57:45.187Z,3.05
2022-10-24T10:00:32.046Z,3.75
2022-10-24T10:03:00.037Z,6.50
2022-10-24T10:05:26.928Z,4.95
2022-10-24T10:07:53.553Z,3.33
2022-10-24T10:10:37.696Z,4.97
2022-10-24T10:13:06.967Z,4.90
2022-10-24T10:15:36.395Z,4.72
2022-10-24T10:18:21.945Z,5.70
2022-10-24T10:21:14.695Z,5.30
2022-10-24T10:23:57.010Z,4.82
2022-10-24T10:26:30.235Z,6.88
2022-10-24T10:29:00.923Z,7.97
2022-10-24T10:31:34.418Z,3.08
2022-10-24T10:34:09.410Z,8.27
2022-10-24T10:36:41.357Z,6.47
2022-10-24T10:39:13.541Z,9.52
2022-10-24T10:41:53.332Z,7.65
2022-10-24T10:44:19.670Z,6.68
2022-10-24T10:46:45.967Z,7.07
2022-10-24T10:49:21.435Z,6.68
2022-10-24T10:51:50.246Z,7.13
2022-10-24T10:54:16.586Z,7.50
2022-10-24T10:56:47.984Z,6.63
2022-10-24T10:59:33.167Z,8.73
2022-10-24T11:02:18.415Z,5.95
2022-10-24T11:04:47.887Z,7.22
2022-10-24T11:07:35.265Z,7.13
2022-10-24T11:10:12.631Z,8.13
2022-10-24T11:12:40.112Z,10.68
2022-10-24T11:17:51.467Z,6.85
2022-10-24T11:20:19.752Z,7.93
2022-10-24T11:23:06.369Z,6.03
2022-10-24T11:25:36.243Z,6.47
2022-10-24T11:28:14.930Z,8.82
2022-10-24T11:30:45.165Z,5.15
2022-10-24T11:33:15.879Z,11.25
2022-10-24T11:35:52.391Z,10.13
2022-10-24T11:38:21.071Z,12.20
2022-10-24T11:40:51.675Z,6.80
2022-10-24T11:43:24.085Z,6.78
2022-10-24T11:45:58.189Z,8.00
2022-10-24T11:48:34.299Z,10.55
2022-10-24T11:51:13.906Z,12.05
2022-10-24T11:53:50.045Z,8.80
2022-10-24T11:56:27.127Z,8.70
2022-10-24T11:58:58.702Z,5.85
2022-10-24T12:01:45.527Z,6.93
2022-10-24T12:04:17.977Z,5.10
2022-10-24T12:07:03.541Z,6.00
2022-10-24T12:09:38.736Z,5.60
2022-10-24T12:12:11.209Z,6.78
2022-10-24T12:14:56.388Z,6.63
2022-10-24T12:17:33.157Z,8.93
2022-10-24T12:22:30.179Z,7.18
2022-10-24T12:25:05.774Z,6.97
2022-10-24T12:27:37.386Z,7.47
2022-10-24T12:30:09.860Z,10.52
2022-10-24T12:32:39.233Z,9.95
2022-10-24T12:35:30.411Z,8.05
2022-10-24T12:37:57.730Z,8.95
2022-10-24T12:40:57.798Z,9.35
2022-10-24T12:43:34.600Z,10.25
2022-10-24T12:46:01.924Z,13.00
2022-10-24T12:48:32.416Z,8.88
2022-10-24T12:51:00.752Z,10.85
2022-10-24T12:53:31.804Z,6.63
2022-10-24T12:55:58.119Z,8.07
2022-10-24T12:58:32.089Z,5.30
2022-10-24T13:00:58.397Z,8.02
2022-10-24T13:03:43.569Z,10.65
2022-10-24T13:06:14.409Z,7.88
2022-10-24T13:08:56.054Z,7.22
2022-10-24T13:11:22.363Z,9.13
2022-10-24T13:14:07.615Z,7.32
2022-10-24T13:16:44.213Z,9.70
2022-10-24T13:19:18.537Z,11.52
2022-10-24T13:21:47.746Z,9.35
2022-10-24T13:24:17.092Z,12.43
2022-10-24T13:26:44.557Z,9.73
2022-10-24T13:31:37.153Z,20.88
2022-10-24T13:34:29.666Z,15.13
2022-10-24T13:37:01.182Z,12.85
2022-10-24T13:39:31.124Z,17.45
2022-10-24T13:42:01.841Z,14.27
2022-10-24T13:44:30.092Z,11.82
2022-10-24T13:47:11.521Z,15.15
2022-10-24T13:49:39.819Z,16.15
2022-10-24T13:52:18.477Z,17.95
2022-10-24T13:54:47.059Z,3.95
2022-10-24T13:57:26.774Z,3.85
2022-10-24T13:59:57.348Z,4.53
2022-10-24T14:02:27.278Z,4.43
2022-10-24T14:04:58.320Z,4.18
2022-10-24T14:07:29.150Z,3.90
2022-10-24T14:10:07.469Z,5.75
2022-10-24T14:12:34.565Z,3.40
2022-10-24T14:15:03.063Z,6.57
2022-10-24T14:17:30.905Z,3.00
2022-10-24T14:20:17.976Z,3.65
2022-10-24T14:22:44.532Z,6.63
2022-10-24T14:25:28.474Z,4.22
2022-10-24T14:27:56.028Z,3.33
2022-10-24T14:30:23.735Z,2.95
2022-10-24T14:33:03.056Z,3.70
2022-10-24T14:35:29.431Z,2.08
2022-10-24T14:37:55.830Z,2.40
2022-10-24T14:40:22.306Z,2.57
2022-10-24T14:42:48.834Z,1.83
2022-10-24T14:45:29.245Z,2.72
2022-10-24T14:47:56.530Z,2.20
2022-10-24T14:52:49.120Z,3.00
2022-10-24T14:55:23.262Z,4.25
2022-10-24T14:57:50.746Z,3.72
2022-10-24T15:00:24.606Z,2.88
2022-10-24T15:02:56.398Z,4.82
2022-10-24T15:05:23.484Z,3.60
2022-10-24T15:10:37.511Z,3.90
2022-10-24T15:13:10.577Z,4.05
2022-10-24T15:15:49.191Z,2.28
2022-10-24T15:18:23.203Z,4.43
2022-10-24T15:20:51.578Z,7.28
2022-10-24T15:23:28.541Z,9.30
2022-10-24T15:26:11.187Z,4.50
2022-10-24T15:28:45.353Z,2.10
2022-10-24T15:31:19.105Z,3.80
2022-10-24T15:33:45.620Z,4.45
2022-10-24T15:36:25.600Z,4.50
2022-10-24T15:38:56.521Z,6.07
2022-10-24T15:41:23.020Z,3.85
2022-10-24T15:43:49.462Z,6.38
2022-10-24T15:46:16.259Z,3.58
2022-10-24T15:48:43.717Z,4.20
2022-10-24T15:53:36.276Z,3.45
2022-10-24T15:56:02.596Z,3.28
2022-10-24T15:58:28.997Z,2.30
2022-10-24T16:00:55.461Z,6.53
2022-10-24T16:03:22.998Z,4.05
2022-10-24T16:08:16.264Z,4.43
2022-10-24T16:10:43.584Z,5.53
2022-10-24T16:13:10.515Z,3.03
2022-10-24T16:15:37.271Z,5.32
2022-10-24T16:18:04.147Z,4.30
2022-10-24T16:20:30.890Z,4.18
2022-10-24T16:22:57.291Z,4.97
2022-10-24T16:25:25.291Z,4.32
2022-10-24T16:27:51.987Z,5.30
2022-10-24T16:30:19.386Z,5.27
2022-10-24T16:32:45.992Z,4.80
2022-10-24T16:35:17.194Z,2.57
2022-10-24T16:37:43.633Z,2.10
2022-10-24T16:40:10.279Z,2.90
2022-10-24T16:42:36.639Z,2.80
2022-10-24T16:45:03.458Z,1.70
2022-10-24T16:47:29.870Z,2.30
2022-10-24T16:49:56.957Z,2.83
2022-10-24T16:52:23.357Z,5.63
2022-10-24T16:54:49.735Z,4.72
2022-10-24T16:57:16.127Z,4.47
2022-10-24T16:59:42.465Z,3.47
2022-10-24T17:02:10.268Z,3.47
2022-10-24T17:04:36.634Z,3.50
2022-10-24T17:07:04.416Z,2.95
2022-10-24T17:09:30.826Z,4.47
2022-10-24T17:11:59.956Z,5.53
2022-10-24T17:14:27.159Z,5.55
2022-10-24T17:16:53.497Z,4.05
2022-10-24T17:19:20.055Z,2.65
2022-10-24T17:21:47.503Z,3.35
2022-10-24T17:24:14.599Z,3.15
2022-10-24T17:26:41.501Z,2.72
2022-10-24T17:29:08.558Z,2.80
2022-10-24T17:31:35.523Z,3.53
2022-10-24T17:34:01.996Z,2.38
2022-10-24T17:36:30.863Z,5.70
2022-10-24T17:38:57.242Z,2.63
2022-10-24T17:41:23.570Z,5.68
2022-10-24T17:43:52.343Z,3.47
2022-10-24T17:46:18.992Z,3.92
2022-10-24T17:48:45.334Z,4.05
2022-10-24T17:51:14.927Z,2.47
2022-10-24T17:53:41.269Z,3.35
2022-10-24T17:56:07.803Z,4.03
2022-10-24T17:58:34.130Z,3.83
2022-10-24T18:01:00.807Z,4.57
2022-10-24T18:03:28.722Z,4.85
2022-10-24T18:05:58.775Z,3.97
2022-10-24T18:08:25.191Z,5.13
2022-10-24T18:10:51.552Z,3.63
2022-10-24T18:13:18.051Z,6.00
2022-10-24T18:15:44.384Z,3.05
2022-10-24T18:18:11.007Z,4.57
2022-10-24T18:20:37.394Z,3.45
2022-10-24T18:23:03.817Z,4.95
2022-10-24T18:25:30.259Z,4.70
2022-10-24T18:27:56.918Z,5.35
2022-10-24T18:30:23.486Z,3.42
2022-10-24T18:32:50.309Z,5.72
2022-10-24T18:35:16.857Z,4.25
2022-10-24T18:37:43.455Z,4.82
2022-10-24T18:40:10.128Z,5.22
2022-10-24T18:42:45.682Z,6.55
2022-10-24T18:45:13.531Z,4.90
2022-10-24T18:47:40.106Z,5.47
2022-10-24T18:50:06.692Z,6.10
2022-10-24T18:52:40.173Z,5.82
2022-10-24T18:55:21.616Z,5.30
2022-10-24T18:57:48.917Z,5.05
2022-10-24T19:00:17.086Z,3.90
2022-10-24T19:02:49.290Z,3.97
2022-10-24T19:05:21.950Z,5.50
2022-10-24T19:07:49.495Z,2.42
2022-10-24T19:10:26.392Z,2.92
2022-10-24T19:12:54.204Z,2.27
2022-10-24T19:15:20.847Z,3.75
2022-10-24T19:17:48.018Z,2.70
2022-10-24T19:20:15.788Z,6.18
2022-10-24T19:25:08.530Z,4.47
2022-10-24T19:27:34.848Z,4.43
2022-10-24T19:30:01.213Z,5.75
2022-10-24T19:32:27.603Z,5.25
2022-10-24T19:34:53.984Z,5.13
2022-10-24T19:37:20.413Z,2.20
2022-10-24T19:39:46.735Z,3.50
2022-10-24T19:42:13.130Z,4.40
2022-10-24T19:44:39.597Z,2.85
2022-10-24T19:47:05.938Z,5.05
2022-10-24T19:49:32.280Z,3.10
2022-10-24T19:51:59.580Z,3.63
2022-10-24T19:54:26.068Z,5.65
2022-10-24T19:56:55.568Z,5.65
2022-10-24T19:59:22.014Z,3.78
2022-10-24T20:01:48.527Z,4.07
2022-10-24T20:04:15.093Z,7.70
2022-10-24T20:06:41.418Z,2.95
2022-10-24T20:09:07.790Z,3.72
2022-10-24T20:11:34.194Z,4.50
2022-10-24T20:14:00.525Z,3.72
2022-10-24T20:16:26.931Z,4.45
2022-10-24T20:18:53.338Z,4.13
2022-10-24T20:21:19.818Z,2.40
2022-10-24T20:23:47.177Z,4.15
2022-10-24T20:26:15.145Z,5.97
2022-10-24T20:28:43.282Z,3.85
2022-10-24T20:31:17.741Z,5.00
2022-10-24T20:33:44.136Z,5.10
2022-10-24T20:36:10.437Z,4.05
2022-10-24T20:38:36.767Z,7.78
2022-10-24T20:41:03.465Z,4.60
2022-10-24T20:43:29.991Z,4.20
2022-10-24T20:45:56.371Z,6.25
2022-10-24T20:48:22.765Z,5.38
2022-10-24T20:50:49.090Z,5.90
2022-10-24T20:53:16.090Z,4.97
2022-10-24T20:55:44.846Z,3.57
2022-10-24T20:58:12.354Z,4.70
2022-10-24T21:00:38.755Z,3.00
2022-10-24T21:03:05.169Z,5.40
2022-10-24T21:05:31.515Z,3.90
2022-10-24T21:07:57.850Z,3.85
2022-10-24T21:10:24.219Z,4.70
2022-10-24T21:12:50.835Z,7.57
2022-10-24T21:15:17.415Z,9.10
2022-10-24T21:17:43.970Z,4.10
2022-10-24T21:20:10.580Z,10.43
2022-10-24T21:22:36.918Z,2.42
2022-10-24T21:25:03.365Z,3.03
2022-10-24T21:27:29.787Z,4.18
2022-10-24T21:29:56.103Z,7.30
2022-10-24T21:32:22.456Z,4.43
2022-10-24T21:34:48.820Z,5.05
2022-10-24T21:37:15.165Z,4.30
2022-10-24T21:39:41.504Z,5.05
2022-10-24T21:42:07.826Z,4.43
2022-10-24T21:44:34.550Z,5.82
2022-10-24T21:47:00.925Z,6.97
2022-10-24T21:49:27.367Z,4.03
2022-10-24T21:51:53.819Z,6.25
2022-10-24T21:54:21.262Z,3.00
2022-10-24T21:56:47.850Z,3.83
2022-10-24T21:59:16.728Z,6.35
2022-10-24T22:01:43.601Z,3.67
2022-10-24T22:04:10.680Z,3.70
2022-10-24T22:06:37.435Z,5.67
2022-10-24T22:09:04.995Z,5.57
2022-10-24T22:11:32.006Z,4.30
2022-10-24T22:13:58.372Z,6.95
2022-10-24T22:16:26.032Z,3.60
2022-10-24T22:18:53.018Z,5.93
2022-10-24T22:21:30.111Z,3.42
2022-10-24T22:23:57.287Z,5.40
2022-10-24T22:26:24.224Z,5.75
2022-10-24T22:28:50.763Z,5.83
2022-10-24T22:31:17.308Z,5.25
2022-10-24T22:33:44.143Z,6.22
2022-10-24T22:36:19.496Z,2.45
2022-10-24T22:38:46.010Z,3.35
2022-10-24T22:41:12.670Z,5.47
2022-10-24T22:43:39.177Z,4.72
2022-10-24T22:46:18.723Z,4.63
2022-10-24T22:48:46.794Z,5.13
2022-10-24T22:51:14.182Z,4.78
2022-10-24T22:53:40.696Z,5.25
2022-10-24T22:56:10.816Z,6.55
2022-10-24T22:58:37.726Z,5.40
2022-10-24T23:01:22.985Z,5.20
2022-10-24T23:03:49.455Z,6.47
2022-10-24T23:06:18.586Z,6.00
2022-10-24T23:08:45.393Z,7.22
2022-10-24T23:11:12.611Z,6.47
2022-10-24T23:13:39.706Z,4.90
2022-10-24T23:16:29.055Z,8.63
2022-10-24T23:18:55.567Z,6.53
2022-10-24T23:21:36.930Z,5.53
2022-10-24T23:24:03.405Z,6.20
2022-10-24T23:26:29.697Z,8.95
2022-10-24T23:29:01.392Z,6.32
2022-10-24T23:31:27.883Z,6.50
2022-10-24T23:33:54.564Z,5.72
2022-10-24T23:36:25.118Z,8.77
2022-10-24T23:38:54.597Z,7.55
2022-10-24T23:41:21.154Z,4.70
2022-10-24T23:43:47.722Z,7.72
2022-10-24T23:46:24.003Z,7.95
2022-10-24T23:48:56.253Z,6.55
2022-10-24T23:51:31.131Z,9.45
2022-10-24T23:53:57.884Z,4.38
2022-10-24T23:56:25.747Z,10.65
